sensor_id;sensor_type;location;lat;lon;timestamp;pressure;altitude;pressure_sealevel;temperature;humidity
54194;BME280;40102;50.906;6.972;2022-09-03T00:01:49;100503.00;;;19.58;39.95
54194;BME280;40102;50.906;6.972;2022-09-03T00:07:21;100490.88;;;19.43;40.01
54194;BME280;40102;50.906;6.972;2022-09-03T00:09:55;100489.06;;;19.34;40.24
54194;BME280;40102;50.906;6.972;2022-09-03T00:12:27;100507.88;;;19.45;40.08
54194;BME280;40102;50.906;6.972;2022-09-03T00:15:06;100504.56;;;19.51;39.97
54194;BME280;40102;50.906;6.972;2022-09-03T00:20:14;100488.34;;;19.32;40.46
54194;BME280;40102;50.906;6.972;2022-09-03T00:22:44;100493.66;;;19.24;40.50
54194;BME280;40102;50.906;6.972;2022-09-03T00:25:14;100500.09;;;19.23;40.90
54194;BME280;40102;50.906;6.972;2022-09-03T00:27:42;100498.63;;;19.28;41.13
54194;BME280;40102;50.906;6.972;2022-09-03T00:30:14;100500.34;;;19.29;40.99
54194;BME280;40102;50.906;6.972;2022-09-03T00:32:58;100497.81;;;19.18;40.99
54194;BME280;40102;50.906;6.972;2022-09-03T00:38:30;100491.97;;;19.03;41.43
54194;BME280;40102;50.906;6.972;2022-09-03T00:41:24;100507.09;;;19.06;42.07
54194;BME280;40102;50.906;6.972;2022-09-03T00:46:44;100502.81;;;19.03;42.54
54194;BME280;40102;50.906;6.972;2022-09-03T00:52:05;100505.53;;;19.03;42.35
54194;BME280;40102;50.906;6.972;2022-09-03T01:00:25;100494.69;;;19.03;42.57
54194;BME280;40102;50.906;6.972;2022-09-03T01:03:09;100503.53;;;19.05;43.16
54194;BME280;40102;50.906;6.972;2022-09-03T01:08:50;100496.56;;;19.03;43.94
54194;BME280;40102;50.906;6.972;2022-09-03T01:17:29;100493.28;;;18.99;44.59
54194;BME280;40102;50.906;6.972;2022-09-03T01:20:26;100500.28;;;18.92;44.67
54194;BME280;40102;50.906;6.972;2022-09-03T01:26:28;100481.88;;;18.96;45.18
54194;BME280;40102;50.906;6.972;2022-09-03T01:29:03;100490.28;;;19.02;45.13
54194;BME280;40102;50.906;6.972;2022-09-03T01:31:41;100496.84;;;19.00;45.62
54194;BME280;40102;50.906;6.972;2022-09-03T01:36:44;100510.25;;;18.72;46.25
54194;BME280;40102;50.906;6.972;2022-09-03T01:39:25;100497.09;;;18.49;46.38
54194;BME280;40102;50.906;6.972;2022-09-03T01:42:25;100508.34;;;18.34;46.85
54194;BME280;40102;50.906;6.972;2022-09-03T01:48:02;100505.84;;;18.02;45.88
54194;BME280;40102;50.906;6.972;2022-09-03T01:50:50;100500.72;;;17.99;45.91
54194;BME280;40102;50.906;6.972;2022-09-03T01:53:33;100502.56;;;17.99;45.69
54194;BME280;40102;50.906;6.972;2022-09-03T01:56:32;100502.16;;;18.03;45.84
54194;BME280;40102;50.906;6.972;2022-09-03T01:59:08;100489.47;;;18.04;46.06
54194;BME280;40102;50.906;6.972;2022-09-03T02:01:44;100486.47;;;17.97;45.99
54194;BME280;40102;50.906;6.972;2022-09-03T02:04:20;100481.63;;;18.01;46.17
54194;BME280;40102;50.906;6.972;2022-09-03T02:06:50;100493.94;;;18.15;46.05
54194;BME280;40102;50.906;6.972;2022-09-03T02:09:16;100488.22;;;18.18;46.21
54194;BME280;40102;50.906;6.972;2022-09-03T02:11:43;100485.53;;;18.18;46.41
54194;BME280;40102;50.906;6.972;2022-09-03T02:14:11;100491.38;;;18.23;46.17
54194;BME280;40102;50.906;6.972;2022-09-03T02:16:37;100486.13;;;18.40;46.17
54194;BME280;40102;50.906;6.972;2022-09-03T02:19:14;100484.44;;;18.59;45.59
54194;BME280;40102;50.906;6.972;2022-09-03T02:21:52;100483.16;;;18.82;44.82
54194;BME280;40102;50.906;6.972;2022-09-03T02:24:19;100479.00;;;18.97;44.64
54194;BME280;40102;50.906;6.972;2022-09-03T02:26:45;100477.31;;;18.96;44.58
54194;BME280;40102;50.906;6.972;2022-09-03T02:29:12;100470.19;;;18.95;44.84
54194;BME280;40102;50.906;6.972;2022-09-03T02:31:38;100476.47;;;18.86;45.05
54194;BME280;40102;50.906;6.972;2022-09-03T02:34:04;100483.88;;;18.84;45.32
54194;BME280;40102;50.906;6.972;2022-09-03T02:36:33;100485.59;;;18.75;45.66
54194;BME280;40102;50.906;6.972;2022-09-03T02:38:59;100485.59;;;18.75;45.69
54194;BME280;40102;50.906;6.972;2022-09-03T02:41:25;100485.59;;;18.66;46.01
54194;BME280;40102;50.906;6.972;2022-09-03T02:44:22;100482.75;;;18.67;46.13
54194;BME280;40102;50.906;6.972;2022-09-03T02:47:04;100478.19;;;18.68;46.41
54194;BME280;40102;50.906;6.972;2022-09-03T02:49:31;100471.91;;;18.77;46.19
54194;BME280;40102;50.906;6.972;2022-09-03T02:52:02;100473.63;;;18.78;45.68
54194;BME280;40102;50.906;6.972;2022-09-03T02:54:34;100473.63;;;18.78;45.67
54194;BME280;40102;50.906;6.972;2022-09-03T02:57:04;100475.03;;;18.82;45.79
54194;BME280;40102;50.906;6.972;2022-09-03T02:59:30;100476.75;;;18.93;45.24
54194;BME280;40102;50.906;6.972;2022-09-03T03:01:55;100485.56;;;19.04;45.04
54194;BME280;40102;50.906;6.972;2022-09-03T03:04:21;100473.00;;;19.03;44.77
54194;BME280;40102;50.906;6.972;2022-09-03T03:06:47;100478.28;;;19.15;44.60
54194;BME280;40102;50.906;6.972;2022-09-03T03:09:15;100466.53;;;19.24;44.19
54194;BME280;40102;50.906;6.972;2022-09-03T03:11:40;100460.09;;;19.34;43.79
54194;BME280;40102;50.906;6.972;2022-09-03T03:14:06;100467.78;;;19.39;43.62
54194;BME280;40102;50.906;6.972;2022-09-03T03:16:32;100463.69;;;19.25;43.72
54194;BME280;40102;50.906;6.972;2022-09-03T03:18:57;100464.53;;;19.26;43.86
54194;BME280;40102;50.906;6.972;2022-09-03T03:21:23;100455.09;;;19.30;43.29
54194;BME280;40102;50.906;6.972;2022-09-03T03:23:48;100458.28;;;19.16;43.55
54194;BME280;40102;50.906;6.972;2022-09-03T03:26:17;100476.69;;;19.22;43.63
54194;BME280;40102;50.906;6.972;2022-09-03T03:28:44;100454.91;;;19.04;43.60
54194;BME280;40102;50.906;6.972;2022-09-03T03:31:15;100463.78;;;18.87;44.17
54194;BME280;40102;50.906;6.972;2022-09-03T03:33:42;100472.19;;;18.74;44.34
54194;BME280;40102;50.906;6.972;2022-09-03T03:36:13;100463.19;;;18.54;44.89
54194;BME280;40102;50.906;6.972;2022-09-03T03:38:39;100469.47;;;18.45;45.20
54194;BME280;40102;50.906;6.972;2022-09-03T03:41:11;100475.28;;;18.40;45.35
54194;BME280;40102;50.906;6.972;2022-09-03T03:43:37;100467.31;;;18.29;45.75
54194;BME280;40102;50.906;6.972;2022-09-03T03:46:03;100461.59;;;18.23;46.10
54194;BME280;40102;50.906;6.972;2022-09-03T03:48:30;100460.91;;;18.30;45.78
54194;BME280;40102;50.906;6.972;2022-09-03T03:50:59;100464.19;;;18.34;45.34
54194;BME280;40102;50.906;6.972;2022-09-03T03:53:27;100456.19;;;18.32;45.35
54194;BME280;40102;50.906;6.972;2022-09-03T03:55:56;100470.16;;;18.28;45.37
54194;BME280;40102;50.906;6.972;2022-09-03T03:58:23;100466.72;;;18.26;45.46
54194;BME280;40102;50.906;6.972;2022-09-03T04:00:50;100477.69;;;18.24;45.55
54194;BME280;40102;50.906;6.972;2022-09-03T04:03:16;100462.31;;;18.25;45.66
54194;BME280;40102;50.906;6.972;2022-09-03T04:05:41;100449.63;;;18.25;45.35
54194;BME280;40102;50.906;6.972;2022-09-03T04:08:07;100459.63;;;18.34;45.56
54194;BME280;40102;50.906;6.972;2022-09-03T04:10:32;100449.06;;;18.31;45.49
54194;BME280;40102;50.906;6.972;2022-09-03T04:12:58;100448.22;;;18.40;45.64
54194;BME280;40102;50.906;6.972;2022-09-03T04:15:25;100451.34;;;18.26;45.74
54194;BME280;40102;50.906;6.972;2022-09-03T04:17:53;100463.47;;;18.32;45.92
54194;BME280;40102;50.906;6.972;2022-09-03T04:20:19;100461.03;;;18.38;45.87
54194;BME280;40102;50.906;6.972;2022-09-03T04:22:44;100452.22;;;18.36;45.89
54194;BME280;40102;50.906;6.972;2022-09-03T04:25:10;100464.31;;;18.42;45.84
54194;BME280;40102;50.906;6.972;2022-09-03T04:27:35;100449.94;;;18.32;45.71
54194;BME280;40102;50.906;6.972;2022-09-03T04:30:00;100458.19;;;18.40;45.66
54194;BME280;40102;50.906;6.972;2022-09-03T04:32:26;100459.19;;;18.49;45.38
54194;BME280;40102;50.906;6.972;2022-09-03T04:35:10;100450.66;;;18.63;44.94
54194;BME280;40102;50.906;6.972;2022-09-03T04:37:36;100454.94;;;18.65;45.00
54194;BME280;40102;50.906;6.972;2022-09-03T04:40:02;100456.63;;;18.57;45.32
54194;BME280;40102;50.906;6.972;2022-09-03T04:42:27;100454.38;;;18.62;45.38
54194;BME280;40102;50.906;6.972;2022-09-03T04:44:53;100442.09;;;18.58;45.45
54194;BME280;40102;50.906;6.972;2022-09-03T04:47:18;100445.41;;;18.61;45.34
54194;BME280;40102;50.906;6.972;2022-09-03T04:49:43;100457.06;;;18.42;45.90
54194;BME280;40102;50.906;6.972;2022-09-03T04:52:09;100444.66;;;18.21;46.56
54194;BME280;40102;50.906;6.972;2022-09-03T04:54:34;100455.31;;;18.12;46.75
54194;BME280;40102;50.906;6.972;2022-09-03T04:56:59;100449.06;;;18.31;46.43
54194;BME280;40102;50.906;6.972;2022-09-03T04:59:25;100453.06;;;18.47;45.92
54194;BME280;40102;50.906;6.972;2022-09-03T05:01:50;100458.50;;;18.66;45.49
54194;BME280;40102;50.906;6.972;2022-09-03T05:04:20;100442.25;;;18.66;44.92
54194;BME280;40102;50.906;6.972;2022-09-03T05:06:45;100465.78;;;18.65;44.73
54194;BME280;40102;50.906;6.972;2022-09-03T05:09:11;100474.19;;;18.62;45.18
54194;BME280;40102;50.906;6.972;2022-09-03T05:11:36;100465.75;;;18.56;45.26
54194;BME280;40102;50.906;6.972;2022-09-03T05:14:02;100466.34;;;18.69;45.40
54194;BME280;40102;50.906;6.972;2022-09-03T05:16:28;100460.06;;;18.68;45.29
54194;BME280;40102;50.906;6.972;2022-09-03T05:18:56;100454.50;;;18.70;45.44
54194;BME280;40102;50.906;6.972;2022-09-03T05:21:24;100461.06;;;18.77;45.29
54194;BME280;40102;50.906;6.972;2022-09-03T05:23:51;100456.38;;;18.79;45.00
54194;BME280;40102;50.906;6.972;2022-09-03T05:26:25;100471.34;;;18.83;44.92
54194;BME280;40102;50.906;6.972;2022-09-03T05:28:56;100457.38;;;18.78;44.58
54194;BME280;40102;50.906;6.972;2022-09-03T05:31:24;100462.34;;;18.73;44.78
54194;BME280;40102;50.906;6.972;2022-09-03T05:33:53;100451.50;;;18.54;45.51
54194;BME280;40102;50.906;6.972;2022-09-03T05:36:21;100464.75;;;18.47;45.69
54194;BME280;40102;50.906;6.972;2022-09-03T05:38:48;100459.75;;;18.33;46.03
54194;BME280;40102;50.906;6.972;2022-09-03T05:41:15;100463.75;;;18.38;46.13
54194;BME280;40102;50.906;6.972;2022-09-03T05:43:41;100452.78;;;18.40;46.06
54194;BME280;40102;50.906;6.972;2022-09-03T05:46:09;100447.66;;;18.47;45.99
54194;BME280;40102;50.906;6.972;2022-09-03T05:48:36;100458.34;;;18.48;46.07
54194;BME280;40102;50.906;6.972;2022-09-03T05:51:05;100457.91;;;18.43;45.95
54194;BME280;40102;50.906;6.972;2022-09-03T05:53:33;100460.91;;;18.50;45.71
54194;BME280;40102;50.906;6.972;2022-09-03T05:56:00;100462.38;;;18.63;45.18
54194;BME280;40102;50.906;6.972;2022-09-03T05:58:34;100452.22;;;18.75;45.05
54194;BME280;40102;50.906;6.972;2022-09-03T06:01:08;100455.06;;;18.83;45.12
54194;BME280;40102;50.906;6.972;2022-09-03T06:03:34;100458.66;;;18.74;45.36
54194;BME280;40102;50.906;6.972;2022-09-03T06:05:59;100459.78;;;18.71;45.26
54194;BME280;40102;50.906;6.972;2022-09-03T06:08:24;100459.34;;;18.76;45.38
54194;BME280;40102;50.906;6.972;2022-09-03T06:10:56;100468.63;;;18.83;45.20
54194;BME280;40102;50.906;6.972;2022-09-03T06:13:22;100470.59;;;18.91;45.08
54194;BME280;40102;50.906;6.972;2022-09-03T06:15:47;100464.75;;;18.95;45.00
54194;BME280;40102;50.906;6.972;2022-09-03T06:18:13;100483.84;;;19.03;44.91
54194;BME280;40102;50.906;6.972;2022-09-03T06:20:38;100478.88;;;18.99;45.27
54194;BME280;40102;50.906;6.972;2022-09-03T06:23:03;100465.91;;;18.83;45.40
54194;BME280;40102;50.906;6.972;2022-09-03T06:25:29;100475.03;;;18.82;45.46
54194;BME280;40102;50.906;6.972;2022-09-03T06:27:54;100472.19;;;18.84;45.70
54194;BME280;40102;50.906;6.972;2022-09-03T06:30:20;100474.31;;;18.80;45.55
54194;BME280;40102;50.906;6.972;2022-09-03T06:32:47;100471.19;;;18.75;45.55
54194;BME280;40102;50.906;6.972;2022-09-03T06:35:14;100477.59;;;18.84;45.51
54194;BME280;40102;50.906;6.972;2022-09-03T06:37:41;100479.03;;;18.88;45.29
54194;BME280;40102;50.906;6.972;2022-09-03T06:40:09;100477.31;;;18.87;45.81
54194;BME280;40102;50.906;6.972;2022-09-03T06:42:41;100479.88;;;18.88;45.76
54194;BME280;40102;50.906;6.972;2022-09-03T06:45:09;100477.03;;;18.90;45.76
54194;BME280;40102;50.906;6.972;2022-09-03T06:47:35;100480.75;;;18.89;45.56
54194;BME280;40102;50.906;6.972;2022-09-03T06:50:01;100475.91;;;18.83;45.99
54194;BME280;40102;50.906;6.972;2022-09-03T06:52:27;100464.06;;;18.84;45.65
54194;BME280;40102;50.906;6.972;2022-09-03T06:54:54;100475.31;;;18.89;45.73
54194;BME280;40102;50.906;6.972;2022-09-03T06:57:19;100462.06;;;18.86;45.92
54194;BME280;40102;50.906;6.972;2022-09-03T06:59:44;100474.47;;;18.88;45.44
54194;BME280;40102;50.906;6.972;2022-09-03T07:02:10;100471.75;;;18.88;45.85
54194;BME280;40102;50.906;6.972;2022-09-03T07:04:35;100478.88;;;18.99;45.91
54194;BME280;40102;50.906;6.972;2022-09-03T07:07:01;100474.31;;;18.90;46.18
54194;BME280;40102;50.906;6.972;2022-09-03T07:09:26;100484.28;;;18.99;46.04
54194;BME280;40102;50.906;6.972;2022-09-03T07:11:52;100485.56;;;19.04;46.07
54194;BME280;40102;50.906;6.972;2022-09-03T07:14:19;100476.97;;;19.19;45.93
54194;BME280;40102;50.906;6.972;2022-09-03T07:16:46;100477.94;;;19.27;45.69
54194;BME280;40102;50.906;6.972;2022-09-03T07:19:12;100475.25;;;19.27;45.38
54194;BME280;40102;50.906;6.972;2022-09-03T07:21:38;100483.38;;;19.27;45.53
54194;BME280;40102;50.906;6.972;2022-09-03T07:24:06;100480.09;;;19.24;45.79
54194;BME280;40102;50.906;6.972;2022-09-03T07:26:34;100485.34;;;19.35;45.54
54194;BME280;40102;50.906;6.972;2022-09-03T07:29:00;100477.53;;;19.22;45.35
54194;BME280;40102;50.906;6.972;2022-09-03T07:31:36;100479.09;;;19.25;45.35
54194;BME280;40102;50.906;6.972;2022-09-03T07:34:05;100479.53;;;19.20;45.10
54194;BME280;40102;50.906;6.972;2022-09-03T07:36:36;100478.38;;;19.23;45.34
54194;BME280;40102;50.906;6.972;2022-09-03T07:39:10;100473.75;;;19.42;45.24
54194;BME280;40102;50.906;6.972;2022-09-03T07:41:37;100486.31;;;19.53;44.93
54194;BME280;40102;50.906;6.972;2022-09-03T07:44:03;100482.31;;;19.48;44.96
54194;BME280;40102;50.906;6.972;2022-09-03T07:46:33;100479.19;;;19.52;44.65
54194;BME280;40102;50.906;6.972;2022-09-03T07:49:00;100480.59;;;19.56;44.58
54194;BME280;40102;50.906;6.972;2022-09-03T07:51:31;100481.00;;;19.61;44.48
54194;BME280;40102;50.906;6.972;2022-09-03T07:53:58;100489.69;;;19.65;44.70
54194;BME280;40102;50.906;6.972;2022-09-03T07:56:25;100481.00;;;19.61;44.40
54194;BME280;40102;50.906;6.972;2022-09-03T07:58:51;100481.88;;;19.62;44.48
54194;BME280;40102;50.906;6.972;2022-09-03T08:01:19;100492.16;;;19.58;44.40
54194;BME280;40102;50.906;6.972;2022-09-03T08:03:47;100491.75;;;19.53;44.55
54194;BME280;40102;50.906;6.972;2022-09-03T08:06:14;100498.16;;;19.52;44.80
54194;BME280;40102;50.906;6.972;2022-09-03T08:08:40;100512.84;;;19.59;45.17
54194;BME280;40102;50.906;6.972;2022-09-03T08:11:17;100504.31;;;19.54;44.96
54194;BME280;40102;50.906;6.972;2022-09-03T08:13:55;100506.00;;;19.55;45.38
54194;BME280;40102;50.906;6.972;2022-09-03T08:16:29;100524.41;;;19.61;45.63
54194;BME280;40102;50.906;6.972;2022-09-03T08:18:55;100515.41;;;19.61;45.75
54194;BME280;40102;50.906;6.972;2022-09-03T08:21:21;100521.28;;;19.56;46.63
54194;BME280;40102;50.906;6.972;2022-09-03T08:23:49;100531.00;;;19.59;47.36
54194;BME280;40102;50.906;6.972;2022-09-03T08:26:17;100528.97;;;19.51;47.69
54194;BME280;40102;50.906;6.972;2022-09-03T08:28:43;100514.16;;;19.46;48.11
54194;BME280;40102;50.906;6.972;2022-09-03T08:33:45;100516.31;;;19.42;48.92
54194;BME280;40102;50.906;6.972;2022-09-03T08:36:13;100518.31;;;19.40;48.86
54194;BME280;40102;50.906;6.972;2022-09-03T08:38:41;100526.31;;;19.32;49.18
54194;BME280;40102;50.906;6.972;2022-09-03T08:41:19;100532.59;;;19.32;49.29
54194;BME280;40102;50.906;6.972;2022-09-03T08:47:06;100531.75;;;19.22;49.74
54194;BME280;40102;50.906;6.972;2022-09-03T08:49:40;100542.31;;;19.25;50.43
54194;BME280;40102;50.906;6.972;2022-09-03T08:52:37;100534.63;;;19.21;50.58
54194;BME280;40102;50.906;6.972;2022-09-03T08:55:28;100538.91;;;19.23;50.52
54194;BME280;40102;50.906;6.972;2022-09-03T08:58:17;100534.63;;;19.11;50.49
54194;BME280;40102;50.906;6.972;2022-09-03T09:09:11;100547.75;;;19.06;54.04
54194;BME280;40102;50.906;6.972;2022-09-03T09:14:35;100552.31;;;18.67;58.28
54194;BME280;40102;50.906;6.972;2022-09-03T09:23:29;100559.59;;;18.17;63.62
54194;BME280;40102;50.906;6.972;2022-09-03T09:25:56;100558.88;;;18.15;63.49
54194;BME280;40102;50.906;6.972;2022-09-03T09:28:28;100560.88;;;18.12;63.77
54194;BME280;40102;50.906;6.972;2022-09-03T09:30:56;100554.59;;;18.12;63.41
54194;BME280;40102;50.906;6.972;2022-09-03T09:33:22;100549.69;;;17.96;64.17
54194;BME280;40102;50.906;6.972;2022-09-03T09:35:49;100552.41;;;17.96;65.35
54194;BME280;40102;50.906;6.972;2022-09-03T09:38:28;100552.00;;;18.01;65.89
54194;BME280;40102;50.906;6.972;2022-09-03T09:40:55;100534.81;;;18.11;65.93
54194;BME280;40102;50.906;6.972;2022-09-03T09:43:22;100549.25;;;18.31;66.83
54194;BME280;40102;50.906;6.972;2022-09-03T09:45:51;100533.72;;;18.33;66.67
54194;BME280;40102;50.906;6.972;2022-09-03T09:48:22;100536.56;;;18.41;66.26
54194;BME280;40102;50.906;6.972;2022-09-03T09:53:36;100538.59;;;18.49;65.52
54194;BME280;40102;50.906;6.972;2022-09-03T09:56:02;100540.56;;;18.47;65.92
54194;BME280;40102;50.906;6.972;2022-09-03T09:58:29;100544.44;;;18.54;67.13
54194;BME280;40102;50.906;6.972;2022-09-03T10:01:04;100539.06;;;18.64;66.63
54194;BME280;40102;50.906;6.972;2022-09-03T10:03:40;100541.91;;;18.82;65.90
54194;BME280;40102;50.906;6.972;2022-09-03T10:06:14;100546.19;;;19.03;64.59
54194;BME280;40102;50.906;6.972;2022-09-03T10:09:17;100531.47;;;19.16;63.17
54194;BME280;40102;50.906;6.972;2022-09-03T10:11:46;100531.19;;;19.28;62.02
54194;BME280;40102;50.906;6.972;2022-09-03T10:14:26;100539.75;;;19.24;61.65
54194;BME280;40102;50.906;6.972;2022-09-03T10:17:08;100532.63;;;19.23;62.04
54194;BME280;40102;50.906;6.972;2022-09-03T10:22:59;100527.03;;;19.34;61.03
54194;BME280;40102;50.906;6.972;2022-09-03T10:25:28;100537.00;;;19.43;60.72
54194;BME280;40102;50.906;6.972;2022-09-03T10:27:58;100524.28;;;19.53;60.15
54194;BME280;40102;50.906;6.972;2022-09-03T10:30:27;100519.09;;;19.69;59.89
54194;BME280;40102;50.906;6.972;2022-09-03T10:35:34;100523.78;;;20.04;57.77
54194;BME280;40102;50.906;6.972;2022-09-03T10:46:24;100520.34;;;20.57;55.02
54194;BME280;40102;50.906;6.972;2022-09-03T10:54:50;100515.13;;;20.82;53.94
54194;BME280;40102;50.906;6.972;2022-09-03T11:00:09;100505.75;;;21.20;52.70
54194;BME280;40102;50.906;6.972;2022-09-03T11:05:36;100508.56;;;21.28;53.14
54194;BME280;40102;50.906;6.972;2022-09-03T11:08:15;100513.13;;;21.27;52.44
54194;BME280;40102;50.906;6.972;2022-09-03T11:10:45;100514.00;;;21.28;52.85
54194;BME280;40102;50.906;6.972;2022-09-03T11:13:39;100502.88;;;21.21;52.18
54194;BME280;40102;50.906;6.972;2022-09-03T11:16:33;100513.34;;;21.34;52.70
54194;BME280;40102;50.906;6.972;2022-09-03T11:21:29;100508.94;;;21.33;52.21
54194;BME280;40102;50.906;6.972;2022-09-03T11:24:16;100508.50;;;21.46;51.52
54194;BME280;40102;50.906;6.972;2022-09-03T11:26:48;100495.59;;;21.48;51.03
54194;BME280;40102;50.906;6.972;2022-09-03T11:34:52;100491.66;;;21.76;50.97
54194;BME280;40102;50.906;6.972;2022-09-03T11:37:27;100494.41;;;21.84;51.16
54194;BME280;40102;50.906;6.972;2022-09-03T11:40:06;100487.31;;;21.91;50.03
54194;BME280;40102;50.906;6.972;2022-09-03T11:42:40;100482.69;;;21.84;50.72
54194;BME280;40102;50.906;6.972;2022-09-03T11:45:21;100475.00;;;21.79;50.80
54194;BME280;40102;50.906;6.972;2022-09-03T11:47:46;100476.94;;;21.95;50.61
54194;BME280;40102;50.906;6.972;2022-09-03T11:50:26;100482.91;;;21.98;50.73
54194;BME280;40102;50.906;6.972;2022-09-03T11:53:23;100462.38;;;22.12;50.45
54194;BME280;40102;50.906;6.972;2022-09-03T11:58:38;100467.72;;;22.38;50.04
54194;BME280;40102;50.906;6.972;2022-09-03T12:01:12;100456.66;;;22.48;50.18
54194;BME280;40102;50.906;6.972;2022-09-03T12:04:00;100455.66;;;22.65;50.21
54194;BME280;40102;50.906;6.972;2022-09-03T12:09:20;100456.38;;;22.83;49.97
54194;BME280;40102;50.906;6.972;2022-09-03T12:11:54;100456.53;;;22.98;50.11
54194;BME280;40102;50.906;6.972;2022-09-03T12:14:34;100456.88;;;23.11;49.70
54194;BME280;40102;50.906;6.972;2022-09-03T12:19:52;100453.75;;;23.39;49.87
54194;BME280;40102;50.906;6.972;2022-09-03T12:22:21;100437.00;;;23.50;49.44
54194;BME280;40102;50.906;6.972;2022-09-03T12:24:47;100451.47;;;23.67;48.91
54194;BME280;40102;50.906;6.972;2022-09-03T12:27:25;100455.84;;;23.84;48.07
54194;BME280;40102;50.906;6.972;2022-09-03T12:29:57;100438.91;;;23.88;47.45
54194;BME280;40102;50.906;6.972;2022-09-03T12:32:25;100439.72;;;23.97;47.52
54194;BME280;40102;50.906;6.972;2022-09-03T12:34:51;100450.25;;;24.08;46.62
54194;BME280;40102;50.906;6.972;2022-09-03T12:37:20;100448.69;;;24.14;46.86
54194;BME280;40102;50.906;6.972;2022-09-03T12:39:55;100435.34;;;24.19;46.26
54194;BME280;40102;50.906;6.972;2022-09-03T12:42:28;100438.94;;;24.19;46.97
54194;BME280;40102;50.906;6.972;2022-09-03T12:44:55;100445.03;;;24.30;46.75
54194;BME280;40102;50.906;6.972;2022-09-03T12:47:23;100450.75;;;24.43;46.77
54194;BME280;40102;50.906;6.972;2022-09-03T12:49:51;100441.94;;;24.56;47.00
54194;BME280;40102;50.906;6.972;2022-09-03T12:52:44;100449.59;;;24.60;46.15
54194;BME280;40102;50.906;6.972;2022-09-03T12:57:52;100438.84;;;24.59;46.19
54194;BME280;40102;50.906;6.972;2022-09-03T13:00:20;100454.28;;;24.74;46.14
54194;BME280;40102;50.906;6.972;2022-09-03T13:05:24;100426.13;;;24.89;45.96
54194;BME280;40102;50.906;6.972;2022-09-03T13:07:55;100433.00;;;25.07;45.59
54194;BME280;40102;50.906;6.972;2022-09-03T13:10:35;100421.56;;;25.04;45.36
54194;BME280;40102;50.906;6.972;2022-09-03T13:13:21;100423.00;;;25.14;45.89
54194;BME280;40102;50.906;6.972;2022-09-03T13:24:04;100418.00;;;25.47;45.11
54194;BME280;40102;50.906;6.972;2022-09-03T13:34:45;100414.97;;;25.87;44.08
54194;BME280;40102;50.906;6.972;2022-09-03T13:37:32;100424.41;;;25.99;43.81
54194;BME280;40102;50.906;6.972;2022-09-03T13:40:13;100423.47;;;26.13;43.51
54194;BME280;40102;50.906;6.972;2022-09-03T13:42:45;100416.56;;;26.17;43.40
54194;BME280;40102;50.906;6.972;2022-09-03T13:47:57;100435.34;;;26.35;42.54
54194;BME280;40102;50.906;6.972;2022-09-03T13:50:58;100413.16;;;26.51;42.71
54194;BME280;40102;50.906;6.972;2022-09-03T13:56:35;100407.22;;;26.69;41.86
54194;BME280;40102;50.906;6.972;2022-09-03T13:59:18;100420.91;;;26.90;41.71
54194;BME280;40102;50.906;6.972;2022-09-03T14:02:04;100413.66;;;27.04;41.00
54194;BME280;40102;50.906;6.972;2022-09-03T14:07:27;100418.44;;;27.23;40.97
54194;BME280;40102;50.906;6.972;2022-09-03T14:10:42;100423.19;;;27.36;40.83
54194;BME280;40102;50.906;6.972;2022-09-03T14:16:07;100418.09;;;27.33;40.65
54194;BME280;40102;50.906;6.972;2022-09-03T14:18:45;100417.06;;;27.68;39.68
54194;BME280;40102;50.906;6.972;2022-09-03T14:21:20;100430.09;;;27.60;39.51
54194;BME280;40102;50.906;6.972;2022-09-03T14:23:58;100426.28;;;27.26;39.87
54194;BME280;40102;50.906;6.972;2022-09-03T14:26:36;100418.16;;;26.90;40.90
54194;BME280;40102;50.906;6.972;2022-09-03T14:37:23;100424.47;;;27.74;40.63
54194;BME280;40102;50.906;6.972;2022-09-03T14:40:10;100416.06;;;27.83;39.94
54194;BME280;40102;50.906;6.972;2022-09-03T14:42:58;100419.38;;;28.19;39.60
54194;BME280;40102;50.906;6.972;2022-09-03T14:56:23;100421.97;;;28.41;38.02
54194;BME280;40102;50.906;6.972;2022-09-03T15:04:50;100427.56;;;29.07;36.77
54194;BME280;40102;50.906;6.972;2022-09-03T15:07:58;100414.22;;;28.84;37.47
54194;BME280;40102;50.906;6.972;2022-09-03T15:13:24;100418.19;;;28.48;37.18
54194;BME280;40102;50.906;6.972;2022-09-03T15:18:37;100431.25;;;27.79;38.67
54194;BME280;40102;50.906;6.972;2022-09-03T15:27:10;100429.06;;;27.05;39.50
54194;BME280;40102;50.906;6.972;2022-09-03T15:30:31;100425.81;;;26.95;39.77
54194;BME280;40102;50.906;6.972;2022-09-03T15:38:47;100440.78;;;26.50;40.91
54194;BME280;40102;50.906;6.972;2022-09-03T15:41:28;100444.03;;;26.38;41.28
54194;BME280;40102;50.906;6.972;2022-09-03T15:43:58;100438.38;;;26.25;42.46
54194;BME280;40102;50.906;6.972;2022-09-03T15:46:44;100443.06;;;26.10;42.49
54194;BME280;40102;50.906;6.972;2022-09-03T15:52:30;100449.94;;;25.85;42.89
54194;BME280;40102;50.906;6.972;2022-09-03T15:57:54;100440.00;;;25.54;43.20
54194;BME280;40102;50.906;6.972;2022-09-03T16:00:30;100437.38;;;25.46;43.21
54194;BME280;40102;50.906;6.972;2022-09-03T16:03:08;100443.50;;;25.48;42.69
54194;BME280;40102;50.906;6.972;2022-09-03T16:05:46;100453.97;;;25.44;42.97
54194;BME280;40102;50.906;6.972;2022-09-03T16:08:32;100462.47;;;25.35;43.40
54194;BME280;40102;50.906;6.972;2022-09-03T16:11:27;100467.06;;;25.20;45.22
54194;BME280;40102;50.906;6.972;2022-09-03T16:14:08;100472.81;;;25.10;46.10
54194;BME280;40102;50.906;6.972;2022-09-03T16:16:45;100476.16;;;24.97;46.70
54194;BME280;40102;50.906;6.972;2022-09-03T16:19:23;100473.66;;;24.88;46.94
54194;BME280;40102;50.906;6.972;2022-09-03T16:22:20;100475.38;;;24.66;47.53
54194;BME280;40102;50.906;6.972;2022-09-03T16:24:53;100478.28;;;24.41;48.92